Data for 02/05/2013

Time Sea-Level Adjusted Pressure Absolute Pressure Temperature Relative Humidity Dew Point   
(mb) (inHg) (mb) (inHg) (C) (F) (%) (C) (F)
00:05 1015 29.97 845 24.95 2.3 36.2 58 -5.2 22.7
00:10 1015 29.97 845 24.95 2.3 36.1 58 -5.1 22.8
00:15 1016 30 845 24.95 2.2 35.9 59 -5.1 22.9
00:20 1016 30 845 24.95 2.1 35.7 59 -5 23
00:25 1016 30 845 24.95 2.1 35.7 60 -5 23
00:30 1016 30 845 24.95 2 35.6 60 -5 22.9
00:35 1016 30 845 24.95 1.9 35.4 62 -4.6 23.7
00:40 1016 30 845 24.95 1.5 34.7 63 -4.8 23.4
00:45 1016 30 845 24.95 1.3 34.4 64 -4.7 23.6
00:50 1016 30 845 24.95 1.3 34.4 64 -4.8 23.4
00:55 1016 30 845 24.95 1.2 34.2 65 -4.7 23.5
01:00 1016 30 845 24.95 1.2 34.1 65 -4.8 23.4
01:05 1016 30 845 24.95 1.1 34.1 65 -4.8 23.3
01:10 1016 30 845 24.95 1.1 34 65 -4.8 23.3
01:15 1016 30 845 24.95 1.2 34.1 64 -4.9 23.1
01:20 1016 30 845 24.95 1.3 34.3 63 -5.1 22.9
01:25 1016 30 845 24.95 1.4 34.4 62 -5.1 22.8
01:30 1016 30 845 24.95 1.4 34.6 62 -5.1 22.7
01:35 1016 30 845 24.95 1.4 34.6 61 -5.3 22.5
01:40 1016 30 845 24.95 1.5 34.7 61 -5.1 22.8
01:45 1016 30 845 24.95 1.4 34.6 61 -5.2 22.7
01:50 1016 30 845 24.95 1.4 34.6 62 -5.1 22.8
01:55 1016 30 845 24.95 1.3 34.3 62 -5.2 22.6
02:00 1016 30 845 24.95 1.2 34.2 62 -5.2 22.6
02:05 1016 30 845 24.95 1.2 34.2 62 -5.3 22.4
02:10 1016 30 845 24.95 1.1 34.1 62 -5.4 22.4
02:15 1016 30 845 24.95 1.1 34 62 -5.4 22.3
02:20 1016 30 845 24.95 1.2 34.1 62 -5.4 22.3
02:25 1016 30 845 24.95 1.1 34.1 62 -5.4 22.3
02:30 1016 30 845 24.95 1.1 34 62 -5.3 22.4
02:35 1016 30 845 24.95 1.1 34 61 -5.6 22
02:40 1016 30 845 24.95 1.2 34.1 61 -5.4 22.3
02:45 1016 30 845 24.95 1.1 34.1 62 -5.4 22.3
02:50 1016 30 845 24.95 1.1 34 62 -5.5 22.1
02:55 1016 30 845 24.95 1.1 33.9 62 -5.4 22.3
03:00 1016 30 845 24.95 1 33.7 63 -5.3 22.4
03:05 1016 30 845 24.95 0.8 33.5 63 -5.3 22.4
03:10 1016 30 845 24.95 0.7 33.2 65 -5.3 22.5
03:15 1016 30 845 24.95 0.3 32.5 66 -5.4 22.3
03:20 1016 30 845 24.95 0.1 32.1 66 -5.5 22.1
03:25 1016 30 845 24.95 0.2 32.4 66 -5.4 22.2
03:30 1016 30 845 24.95 0.2 32.4 66 -5.4 22.3
03:35 1016 30 845 24.95 0.2 32.3 66 -5.4 22.2
03:40 1016 30 845 24.95 0.2 32.4 66 -5.3 22.4
03:45 1016 30 845 24.95 0 32 67 -5.3 22.5
03:50 1016 30 845 24.95 0 32 66 -5.5 22.1
03:55 1016 30 845 24.95 0.1 32.1 66 -5.6 21.9
04:00 1016 30 845 24.95 0.2 32.3 66 -5.5 22.1
04:05 1016 30 845 24.95 0.2 32.4 65 -5.7 21.8
04:10 1016 30 845 24.95 0.1 32.3 66 -5.6 22
04:15 1016 30 845 24.95 0 32.1 65 -5.8 21.6
04:20 1016 30 845 24.95 0.2 32.4 65 -5.5 22.1
04:25 1016 30 845 24.95 0.1 32.2 66 -5.5 22.1
04:30 1016 30 845 24.95 0 32 67 -5.4 22.2
04:35 1015 29.97 845 24.95 0.3 32.5 65 -5.5 22
04:40 1015 29.97 845 24.95 0.4 32.6 66 -5.3 22.4
04:45 1015 29.97 845 24.95 0.3 32.6 64 -5.7 21.8
04:50 1015 29.97 845 24.95 0.2 32.4 67 -5.3 22.5
04:55 1015 29.97 844 24.92 0.1 32.2 66 -5.5 22.1
05:00 1015 29.97 844 24.92 0.1 32.2 67 -5.4 22.3
05:05 1015 29.97 844 24.92 -0 32 67 -5.4 22.2
05:10 1015 29.97 844 24.92 -0 31.9 68 -5.3 22.5
05:15 1015 29.97 844 24.92 -0.1 31.8 68 -5.4 22.3
05:20 1015 29.97 844 24.92 -0.2 31.6 69 -5.3 22.5
05:25 1015 29.97 844 24.92 -0.5 31 70 -5.4 22.3
05:30 1015 29.97 844 24.92 -0.5 31 69 -5.5 22
05:35 1015 29.97 844 24.92 -0.5 31 69 -5.5 22
05:40 1015 29.97 844 24.92 -0.5 31 69 -5.5 22.1
05:45 1015 29.97 844 24.92 -0.5 31.1 69 -5.5 22.1
05:50 1015 29.97 844 24.92 -0.6 31 69 -5.5 22.1
05:55 1015 29.97 844 24.92 -0.5 31 68 -5.6 21.9
06:00 1015 29.97 844 24.92 -0.5 31.2 68 -5.7 21.8
06:05 1014 29.94 844 24.92 -0.4 31.3 68 -5.6 21.9
06:10 1014 29.94 844 24.92 -0.2 31.7 67 -5.7 21.8
06:15 1015 29.97 844 24.92 -0.1 31.8 66 -5.7 21.7
06:20 1015 29.97 844 24.92 0 32.1 66 -5.6 21.9
06:25 1015 29.97 844 24.92 -0 32 66 -5.7 21.8
06:30 1015 29.97 844 24.92 0 32 66 -5.6 22
06:35 1015 29.97 844 24.92 0.1 32.2 65 -5.7 21.7
06:40 1015 29.97 844 24.92 0.2 32.4 66 -5.5 22.1
06:45 1015 29.97 844 24.92 0.2 32.4 66 -5.5 22.2
06:50 1015 29.97 844 24.92 0.3 32.5 64 -5.8 21.6
06:55 1015 29.97 844 24.92 0.5 33 65 -5.3 22.5
07:00 1015 29.97 844 24.92 0.2 32.3 67 -5.1 22.7
07:05 1015 29.97 844 24.92 -0.3 31.5 70 -5.2 22.7
07:10 1015 29.97 844 24.92 -0.4 31.4 69 -5.3 22.5
07:15 1015 29.97 844 24.92 -0.3 31.4 70 -5.1 22.9
07:20 1015 29.97 844 24.92 -0.4 31.3 70 -5.2 22.7
07:25 1015 29.97 844 24.92 -0.4 31.3 71 -5.1 22.8
07:30 1015 29.97 844 24.92 -0.4 31.3 71 -5 22.9
07:35 1015 29.97 844 24.92 -0.5 31 72 -5 23
07:40 1015 29.97 844 24.92 -0.7 30.8 72 -5.1 22.9
07:45 1015 29.97 844 24.92 -0.6 30.9 72 -5 23
07:50 1015 29.97 844 24.92 -0.6 30.9 71 -5.2 22.7
07:55 1015 29.97 844 24.92 -0.5 31 72 -4.9 23.1
08:00 1015 29.97 844 24.92 -0.6 31 72 -4.9 23.1
08:05 1015 29.97 844 24.92 -0.5 31 71 -5.1 22.8
08:10 1015 29.97 844 24.92 -0.5 31.1 71 -5.1 22.8
08:15 1015 29.97 844 24.92 -0.5 31.1 72 -5 23.1
08:20 1015 29.97 844 24.92 -0.5 31.2 73 -4.8 23.4
08:25 1015 29.97 844 24.92 -0.5 31.2 71 -5 22.9
08:30 1015 29.97 844 24.92 -0.3 31.5 70 -5 22.9
08:35 1015 29.97 844 24.92 -0.1 31.7 71 -4.8 23.3
08:40 1015 29.97 844 24.92 -0.2 31.7 70 -4.9 23.2
08:45 1015 29.97 844 24.92 -0.2 31.6 71 -4.9 23.2
08:50 1015 29.97 844 24.92 -0.3 31.5 71 -4.9 23.3
08:55 1015 29.97 844 24.92 -0.3 31.4 71 -5 23
09:00 1015 29.97 844 24.92 -0.3 31.4 74 -4.5 23.9
09:05 1015 29.97 844 24.92 -0.4 31.3 74 -4.5 23.9
09:10 1015 29.97 844 24.92 -0.6 31 75 -4.5 23.9
09:15 1015 29.97 844 24.92 -0.7 30.8 75 -4.6 23.8
09:20 1015 29.97 844 24.92 -0.6 30.9 74 -4.8 23.4
09:25 1015 29.97 844 24.92 -0.5 31.1 73 -4.8 23.3
09:30 1015 29.97 844 24.92 -0.4 31.2 72 -4.9 23.2
09:35 1015 29.97 844 24.92 -0.3 31.4 71 -4.9 23.2
09:40 1015 29.97 844 24.92 -0.3 31.5 71 -4.9 23.2
09:45 1015 29.97 844 24.92 -0.2 31.7 70 -5 23
09:50 1015 29.97 844 24.92 0 32 70 -4.8 23.3
09:55 1015 29.97 844 24.92 0 32.1 71 -4.7 23.6
10:00 1015 29.97 844 24.92 0.1 32.1 70 -4.7 23.5
10:05 1015 29.97 844 24.92 0.2 32.4 68 -5 23.1
10:10 1015 29.97 844 24.92 0.5 32.9 68 -4.7 23.5
10:15 1015 29.97 844 24.92 0.7 33.2 66 -4.9 23.2
10:20 1015 29.97 844 24.92 0.6 33.1 67 -4.7 23.5
10:25 1015 29.97 844 24.92 0.7 33.2 68 -4.6 23.6
10:30 1015 29.97 844 24.92 0.6 33.1 67 -4.8 23.3
10:35 1015 29.97 844 24.92 0.6 33.2 67 -4.9 23.2
10:40 1015 29.97 844 24.92 0.8 33.4 66 -4.9 23.2
10:45 1015 29.97 844 24.92 1 33.7 65 -4.9 23.2
10:50 1014 29.94 844 24.92 1.1 34 65 -4.7 23.6
10:55 1014 29.94 844 24.92 1.2 34.2 65 -4.7 23.6
11:00 1014 29.94 843 24.89 1.4 34.5 65 -4.6 23.8
11:05 1014 29.94 843 24.89 1.6 34.8 65 -4.4 24.1
11:10 1014 29.94 843 24.89 1.9 35.4 63 -4.4 24.1
11:15 1014 29.94 843 24.89 2.1 35.7 62 -4.4 24.1
11:20 1014 29.94 843 24.89 2.4 36.3 61 -4.3 24.3
11:25 1014 29.94 843 24.89 2.9 37.2 59 -4.3 24.2
11:30 1014 29.94 843 24.89 3.4 38.2 58 -4.1 24.6
11:35 1014 29.94 843 24.89 4.1 39.3 55 -4.3 24.3
11:40 1014 29.94 843 24.89 4.4 39.8 53 -4.4 24.1
11:45 1014 29.94 843 24.89 4.6 40.2 52 -4.4 24.1
11:50 1014 29.94 843 24.89 5 41 51 -4.2 24.4
11:55 1014 29.94 843 24.89 5.1 41.3 51 -4.2 24.5
12:00 1014 29.94 843 24.89 5.1 41.1 51 -4.1 24.6
12:05 1014 29.94 843 24.89 5.2 41.3 52 -3.9 24.9
12:10 1014 29.94 843 24.89 5.4 41.8 51 -4 24.8
12:15 1014 29.94 843 24.89 5.5 41.9 50 -4 24.7
12:20 1014 29.94 843 24.89 5.2 41.4 50 -4.3 24.3
12:25 1014 29.94 843 24.89 5 41 49 -4.7 23.6
12:30 1014 29.94 843 24.89 5.2 41.4 50 -4.5 23.9
12:35 1014 29.94 843 24.89 5.4 41.8 48 -4.7 23.5
12:40 1013 29.91 843 24.89 6.2 43.1 47 -4.3 24.2
12:45 1013 29.91 843 24.89 5.7 42.3 49 -4.1 24.7
12:50 1013 29.91 843 24.89 5.3 41.6 50 -4.1 24.6
12:55 1013 29.91 843 24.89 5.4 41.7 49 -4.5 23.9
13:00 1013 29.91 842 24.86 6.2 43.1 47 -4.2 24.4
13:05 1013 29.91 842 24.86 6.7 44.1 45 -4.5 24
13:10 1013 29.91 842 24.86 6.9 44.5 45 -4.2 24.4
13:15 1013 29.91 842 24.86 7.3 45.1 44 -4.2 24.4
13:20 1013 29.91 842 24.86 7.1 44.8 45 -3.9 25
13:25 1013 29.91 842 24.86 7.8 46.1 41 -4.6 23.8
13:30 1013 29.91 842 24.86 8.5 47.2 41 -3.9 24.9
13:35 1013 29.91 842 24.86 8.6 47.5 41 -3.7 25.3
13:40 1013 29.91 842 24.86 8 46.4 42 -4.1 24.6
13:45 1013 29.91 842 24.86 8 46.5 42 -3.9 24.9
13:50 1012 29.88 842 24.86 7.9 46.2 43 -4 24.8
13:55 1012 29.88 842 24.86 7.9 46.2 42 -4.2 24.4
14:00 1012 29.88 842 24.86 7.3 45.1 45 -3.9 24.9
14:05 1012 29.88 842 24.86 6.9 44.4 46 -4.1 24.7
14:10 1012 29.88 841 24.83 7 44.6 45 -4.1 24.6
14:15 1012 29.88 841 24.83 7.2 45 45 -4.1 24.7
14:20 1012 29.88 841 24.83 7.2 44.9 47 -3.5 25.8
14:25 1012 29.88 841 24.83 7.3 45.1 48 -3.1 26.4
14:30 1012 29.88 841 24.83 7.2 44.9 47 -3.2 26.2
14:35 1012 29.88 841 24.83 7.2 45 47 -3.4 25.9
14:40 1012 29.88 841 24.83 7.3 45.1 46 -3.7 25.4
14:45 1012 29.88 841 24.83 7.1 44.8 48 -3.1 26.4
14:50 1012 29.88 841 24.83 7 44.6 47 -3.5 25.8
14:55 1012 29.88 841 24.83 6.8 44.2 48 -3.5 25.7
15:00 1012 29.88 841 24.83 6.7 44.1 47 -3.8 25.2
15:05 1012 29.88 841 24.83 6.5 43.7 48 -3.7 25.3
15:10 1012 29.88 841 24.83 6.4 43.5 49 -3.5 25.7
15:15 1012 29.88 841 24.83 6.3 43.3 49 -3.7 25.4
15:20 1012 29.88 841 24.83 6 42.7 51 -3.5 25.8
15:25 1012 29.88 841 24.83 5.9 42.7 54 -2.5 27.4
15:30 1011 29.85 841 24.83 5.6 42.1 55 -2.8 27
15:35 1011 29.85 840 24.81 5.5 42 55 -2.9 26.8
15:40 1011 29.85 840 24.81 5 41.1 56 -3 26.7
15:45 1011 29.85 840 24.81 5.3 41.5 55 -3 26.5
15:50 1011 29.85 840 24.81 5.2 41.3 55 -3.1 26.4
15:55 1011 29.85 840 24.81 4.8 40.7 56 -3.3 26
16:00 1011 29.85 840 24.81 4.8 40.7 54 -3.6 25.6
16:05 1011 29.85 840 24.81 4.8 40.6 56 -3.4 25.9
16:10 1011 29.85 840 24.81 4.6 40.3 54 -4 24.9
16:15 1011 29.85 840 24.81 4.7 40.4 54 -3.9 25.1
16:20 1011 29.85 840 24.81 4.7 40.4 54 -3.8 25.1
16:25 1011 29.85 840 24.81 4.8 40.6 54 -3.8 25.2
16:30 1011 29.85 840 24.81 5 41 54 -3.5 25.6
16:35 1011 29.85 840 24.81 5.1 41.3 54 -3.5 25.7
16:40 1011 29.85 840 24.81 5 41.1 53 -3.7 25.4
16:45 1011 29.85 840 24.81 5.4 41.7 52 -3.6 25.4
16:50 1011 29.85 840 24.81 5.6 42.1 51 -3.7 25.3
16:55 1011 29.85 840 24.81 5.6 42.1 52 -3.6 25.5
17:00 1011 29.85 840 24.81 5.6 42.2 50 -4 24.8
17:05 1011 29.85 840 24.81 5.7 42.2 50 -4 24.8
17:10 1011 29.85 840 24.81 5.9 42.7 49 -3.8 25.1
17:15 1011 29.85 840 24.81 6.2 43.2 48 -3.9 25
17:20 1011 29.85 840 24.81 6.2 43.2 49 -3.5 25.6
17:25 1010 29.83 840 24.81 5.9 42.5 50 -3.8 25.2
17:30 1010 29.83 840 24.81 5.5 41.9 52 -3.6 25.6
17:35 1010 29.83 840 24.81 5.3 41.5 53 -3.5 25.6
17:40 1010 29.83 840 24.81 5 41 53 -3.7 25.3
17:45 1010 29.83 840 24.81 5.1 41.2 53 -3.6 25.6
17:50 1010 29.83 839 24.78 5.2 41.3 54 -3.4 25.9
17:55 1010 29.83 839 24.78 5.2 41.4 51 -4 24.8
18:00 1010 29.83 839 24.78 5.4 41.6 51 -4.1 24.7
18:05 1010 29.83 839 24.78 5.5 42 48 -4.5 23.8
18:10 1010 29.83 839 24.78 5.7 42.2 52 -3.5 25.6
18:15 1010 29.83 839 24.78 5.6 42 52 -3.5 25.8
18:20 1010 29.83 839 24.78 5.2 41.3 53 -3.5 25.7
18:25 1010 29.83 839 24.78 5 40.9 51 -4.4 24.1
18:30 1010 29.83 839 24.78 5.3 41.5 50 -4.3 24.3
18:35 1010 29.83 839 24.78 5.4 41.7 53 -3.4 25.9
18:40 1010 29.83 839 24.78 5.1 41.2 52 -3.9 25
18:45 1010 29.83 839 24.78 4.9 40.9 52 -4.1 24.6
18:50 1010 29.83 839 24.78 4.9 40.8 55 -3.3 26
18:55 1010 29.83 839 24.78 4.5 40 56 -3.6 25.5
19:00 1010 29.83 839 24.78 4.3 39.7 53 -4.4 24.1
19:05 1010 29.83 839 24.78 4.7 40.5 52 -4.3 24.2
19:10 1010 29.83 839 24.78 4.9 40.7 54 -3.8 25.2
19:15 1010 29.83 839 24.78 4.9 40.8 52 -4.1 24.7
19:20 1010 29.83 839 24.78 4.9 40.8 51 -4.4 24.1
19:25 1010 29.83 839 24.78 5 40.9 51 -4.3 24.2
19:30 1010 29.83 839 24.78 5 40.9 51 -4.2 24.4
19:35 1010 29.83 839 24.78 4.9 40.8 51 -4.5 23.9
19:40 1010 29.83 839 24.78 4.9 40.8 50 -4.6 23.7
19:45 1010 29.83 839 24.78 4.8 40.7 51 -4.6 23.7
19:50 1010 29.83 839 24.78 4.8 40.7 51 -4.5 23.8
19:55 1010 29.83 839 24.78 4.7 40.5 52 -4.3 24.2
20:00 1010 29.83 839 24.78 4.6 40.3 50 -4.8 23.3
20:05 1010 29.83 839 24.78 4.6 40.3 50 -4.9 23.2
20:10 1010 29.83 839 24.78 4.8 40.6 48 -5.4 22.3
20:15 1010 29.83 839 24.78 5.1 41.2 46 -5.6 21.9
20:20 1010 29.83 839 24.78 5 41 49 -4.9 23.2
20:25 1010 29.83 839 24.78 4.6 40.3 50 -4.9 23.2
20:30 1010 29.83 839 24.78 4.3 39.8 51 -4.9 23.2
20:35 1010 29.83 839 24.78 4.1 39.4 52 -4.9 23.1
20:40 1010 29.83 839 24.78 4.2 39.6 51 -5.1 22.8
20:45 1010 29.83 839 24.78 4.2 39.5 51 -5 23.1
20:50 1010 29.83 839 24.78 4.1 39.3 53 -4.6 23.6
20:55 1010 29.83 839 24.78 3.8 38.9 55 -4.5 23.9
21:00 1010 29.83 839 24.78 3.5 38.3 53 -5.1 22.8
21:05 1010 29.83 839 24.78 3.5 38.2 57 -4.3 24.3
21:10 1010 29.83 839 24.78 3.1 37.5 56 -4.8 23.4
21:15 1010 29.83 839 24.78 3 37.3 56 -5 23
21:20 1010 29.83 839 24.78 3 37.4 55 -5.3 22.5
21:25 1010 29.83 839 24.78 3.2 37.7 56 -4.9 23.2
21:30 1010 29.83 839 24.78 2.9 37.2 57 -4.8 23.4
21:35 1010 29.83 839 24.78 2.7 36.9 56 -5.2 22.7
21:40 1010 29.83 839 24.78 2.4 36.4 57 -5.2 22.6
21:45 1010 29.83 839 24.78 2.6 36.7 58 -4.9 23.2
21:50 1010 29.83 839 24.78 2.2 35.9 59 -5.1 22.8
21:55 1010 29.83 839 24.78 2.2 35.9 58 -5.1 22.8
22:00 1010 29.83 839 24.78 2.2 36 58 -5.1 22.7
22:05 1010 29.83 839 24.78 2.2 35.9 60 -4.7 23.5
22:10 1010 29.83 839 24.78 1.8 35.3 60 -5.2 22.6
22:15 1010 29.83 839 24.78 2 35.6 59 -5.2 22.7
22:20 1010 29.83 839 24.78 1.9 35.5 61 -4.9 23.2
22:25 1010 29.83 839 24.78 1.7 35.1 61 -5 23
22:30 1010 29.83 839 24.78 1.6 34.9 59 -5.5 22.2
22:35 1010 29.83 839 24.78 2 35.7 58 -5.4 22.3
22:40 1010 29.83 839 24.78 2.4 36.3 56 -5.5 22.2
22:45 1010 29.83 840 24.81 2.5 36.5 57 -5.1 22.8
22:50 1010 29.83 840 24.81 2.5 36.4 55 -5.7 21.7
22:55 1010 29.83 840 24.81 2.8 37 53 -5.8 21.6
23:00 1010 29.83 840 24.81 2.9 37.2 52 -6 21.2
23:05 1010 29.83 840 24.81 2.9 37.3 54 -5.6 22
23:10 1010 29.83 840 24.81 3 37.4 53 -5.7 21.8
23:15 1010 29.83 840 24.81 2.4 36.4 56 -5.5 22.1
23:20 1010 29.83 840 24.81 2.3 36.1 54 -6 21.2
23:25 1010 29.83 840 24.81 2.6 36.6 56 -5.3 22.5
23:30 1010 29.83 840 24.81 2.2 36 56 -5.7 21.8
23:35 1010 29.83 840 24.81 1.9 35.5 60 -5.1 22.9
23:40 1010 29.83 840 24.81 1.1 33.9 61 -5.7 21.7
23:45 1010 29.83 840 24.81 1 33.7 61 -5.7 21.7
23:50 1010 29.83 840 24.81 0.9 33.6 61 -5.7 21.8
23:55 1010 29.83 840 24.81 1 33.8 62 -5.4 22.2
24:00 1010 29.83 840 24.81 1 33.7 58 -6.3 20.6